Time;durP1;ratioP1;P1;durP2;ratioP2;P2;SDS_P1;SDS_P2;PMS_P1;PMS_P2;Temp;Humidity;BMP_temperature;BMP_pressure;BME280_temperature;BME280_humidity;BME280_pressure;Samples;Min_cycle;Max_cycle;Signal;HPM_P1;HPM_P2
2022/03/25 00:01:59;;;;;;;80.47;55.72;;;7.30;99.90;;;;;;4999515;28;20052;-68
2022/03/25 00:04:25;;;;;;;81.47;55.20;;;7.30;99.90;;;;;;5016437;28;20073;-68
2022/03/25 00:06:50;;;;;;;80.50;54.35;;;7.20;99.90;;;;;;5016917;28;20046;-69
2022/03/25 00:09:16;;;;;;;81.72;55.00;;;7.10;99.90;;;;;;5016659;28;20046;-67
2022/03/25 00:11:41;;;;;;;80.65;54.78;;;7.10;99.90;;;;;;5016551;28;20415;-68
2022/03/25 00:14:07;;;;;;;81.28;55.60;;;7.00;99.90;;;;;;5016379;28;20447;-67
2022/03/25 00:16:33;;;;;;;86.55;55.30;;;7.00;99.90;;;;;;5011117;28;20048;-67
2022/03/25 00:18:59;;;;;;;78.95;53.60;;;6.90;99.90;;;;;;5016302;28;20666;-68
2022/03/25 00:21:24;;;;;;;83.68;55.38;;;6.90;99.90;;;;;;5016718;28;20041;-68
2022/03/25 00:23:50;;;;;;;84.03;54.15;;;6.90;99.90;;;;;;5016498;28;20060;-68
2022/03/25 00:26:16;;;;;;;86.95;55.33;;;6.70;99.90;;;;;;5016200;28;20042;-67
2022/03/25 00:28:42;;;;;;;80.20;54.33;;;6.70;99.90;;;;;;5016022;28;20077;-68
2022/03/25 00:31:07;;;;;;;87.07;55.42;;;6.70;99.90;;;;;;5016334;28;20050;-67
2022/03/25 00:33:37;;;;;;;80.55;54.88;;;6.70;99.90;;;;;;5016403;28;20038;-67
2022/03/25 00:36:04;;;;;;;83.75;54.60;;;6.70;99.90;;;;;;5014686;28;20125;-69
2022/03/25 00:38:30;;;;;;;89.68;59.00;;;6.70;99.90;;;;;;5015813;28;20046;-68
2022/03/25 00:40:56;;;;;;;82.15;56.55;;;6.60;99.90;;;;;;5016191;28;20044;-68
2022/03/25 00:43:23;;;;;;;82.32;57.83;;;6.60;99.90;;;;;;5015772;28;20042;-69
2022/03/25 00:45:49;;;;;;;83.30;56.35;;;6.60;99.90;;;;;;4995346;28;20042;-68
2022/03/25 00:48:14;;;;;;;88.20;58.92;;;6.60;99.90;;;;;;5015081;28;20078;-69
2022/03/25 00:50:41;;;;;;;84.57;56.55;;;6.50;99.90;;;;;;5016011;28;20108;-68
2022/03/25 00:53:08;;;;;;;87.95;56.97;;;6.50;99.90;;;;;;4998663;28;20352;-68
2022/03/25 00:55:34;;;;;;;87.35;57.80;;;6.50;99.90;;;;;;5015588;28;20053;-68
2022/03/25 00:58:00;;;;;;;83.97;57.50;;;6.40;99.90;;;;;;5015410;28;20037;-70
2022/03/25 01:00:26;;;;;;;87.53;58.78;;;6.50;99.90;;;;;;4998530;28;20082;-69
2022/03/25 01:02:52;;;;;;;86.45;57.67;;;6.40;99.90;;;;;;5015261;28;20533;-69
2022/03/25 01:05:18;;;;;;;85.43;57.08;;;6.50;99.90;;;;;;5010818;28;20124;-68
2022/03/25 01:07:44;;;;;;;89.63;58.15;;;6.50;99.90;;;;;;5015670;28;20133;-69
2022/03/25 01:10:11;;;;;;;89.80;57.67;;;6.40;99.90;;;;;;5015226;28;20050;-68
2022/03/25 01:12:37;;;;;;;81.57;55.28;;;6.40;99.90;;;;;;5015495;28;20172;-69
2022/03/25 01:15:04;;;;;;;79.85;55.10;;;6.40;99.90;;;;;;5015356;28;20038;-71
2022/03/25 01:17:30;;;;;;;83.07;57.00;;;6.40;99.90;;;;;;5015092;28;20116;-68
2022/03/25 01:19:56;;;;;;;84.65;56.85;;;6.40;99.90;;;;;;5014764;28;20034;-68
2022/03/25 01:22:22;;;;;;;82.40;56.55;;;6.30;99.90;;;;;;5015063;28;20045;-69
2022/03/25 01:24:48;;;;;;;85.45;57.15;;;6.20;99.90;;;;;;5010671;28;20401;-69
2022/03/25 01:27:14;;;;;;;94.38;58.30;;;6.20;99.90;;;;;;5006839;28;20074;-69
2022/03/25 01:29:40;;;;;;;86.93;55.25;;;6.20;99.90;;;;;;5014608;28;20042;-68
2022/03/25 01:32:07;;;;;;;84.72;55.63;;;6.20;99.90;;;;;;5015141;28;20046;-69
2022/03/25 01:34:33;;;;;;;80.45;54.47;;;6.10;99.90;;;;;;5014697;28;20563;-69
2022/03/25 01:36:59;;;;;;;81.78;55.78;;;6.10;99.90;;;;;;5015191;28;20248;-69
2022/03/25 01:39:25;;;;;;;88.20;59.60;;;6.10;99.90;;;;;;5014465;28;20110;-68
2022/03/25 01:41:51;;;;;;;83.50;56.58;;;6.10;99.90;;;;;;5015265;28;20049;-68
2022/03/25 01:44:27;;;;;;;84.65;57.22;;;6.00;99.90;;;;;;5014498;28;20038;-67
2022/03/25 01:46:55;;;;;;;87.20;57.67;;;6.00;99.90;;;;;;5014929;28;20041;-69
2022/03/25 01:49:22;;;;;;;85.25;56.88;;;6.00;99.90;;;;;;5014136;28;20490;-68
2022/03/25 01:51:50;;;;;;;86.25;56.67;;;6.00;99.90;;;;;;4997154;28;20077;-69
2022/03/25 01:54:24;;;;;;;87.53;57.88;;;6.00;99.90;;;;;;5014083;28;20394;-69
2022/03/25 01:56:54;;;;;;;90.78;59.05;;;6.00;99.90;;;;;;4993872;28;20060;-68
2022/03/25 01:59:20;;;;;;;83.85;56.08;;;6.00;99.90;;;;;;4996842;28;20046;-69
2022/03/25 02:01:47;;;;;;;85.22;57.35;;;6.00;99.90;;;;;;5013899;28;20029;-68
2022/03/25 02:04:13;;;;;;;86.65;59.30;;;5.90;99.90;;;;;;5014358;28;20387;-69
2022/03/25 02:06:39;;;;;;;86.18;57.53;;;5.80;99.90;;;;;;4996909;28;20046;-69
2022/03/25 02:09:05;;;;;;;83.00;56.17;;;5.80;99.90;;;;;;5014486;28;20060;-69
2022/03/25 02:11:32;;;;;;;84.55;54.70;;;5.70;99.90;;;;;;5014578;28;20045;-69
2022/03/25 02:13:58;;;;;;;85.13;56.70;;;5.70;99.90;;;;;;5014030;28;20126;-69
2022/03/25 02:16:45;;;;;;;82.13;56.28;;;5.60;99.90;;;;;;5009974;28;20410;-69
2022/03/25 02:19:18;;;;;;;92.05;59.55;;;5.50;99.90;;;;;;5014476;28;20076;-68
2022/03/25 02:21:45;;;;;;;86.45;56.17;;;5.60;99.90;;;;;;5014462;28;20109;-69
2022/03/25 02:24:12;;;;;;;89.25;58.88;;;5.60;99.90;;;;;;5014480;28;20198;-68
2022/03/25 02:26:39;;;;;;;83.68;57.33;;;5.50;99.90;;;;;;5014294;28;20129;-68
2022/03/25 02:29:07;;;;;;;84.90;57.33;;;5.50;99.90;;;;;;5014085;28;20052;-67
2022/03/25 02:31:33;;;;;;;77.00;53.50;;;5.50;99.90;;;;;;5014119;28;20413;-69
2022/03/25 02:34:04;;;;;;;75.30;52.92;;;5.40;99.90;;;;;;4996613;28;20058;-68
2022/03/25 02:36:36;;;;;;;73.22;51.40;;;5.40;99.90;;;;;;5010135;28;20046;-68
2022/03/25 02:39:03;;;;;;;73.57;50.38;;;5.30;99.90;;;;;;5013962;28;20038;-69
2022/03/25 02:41:29;;;;;;;67.65;48.85;;;5.30;99.90;;;;;;5014292;28;20048;-68
2022/03/25 02:43:54;;;;;;;65.15;47.85;;;5.30;99.90;;;;;;5014174;28;20045;-68
2022/03/25 02:46:20;;;;;;;66.82;47.05;;;5.20;99.90;;;;;;5013871;28;20038;-68
2022/03/25 02:48:45;;;;;;;62.83;45.00;;;5.20;99.90;;;;;;5013893;28;20029;-69
2022/03/25 02:51:11;;;;;;;64.75;47.35;;;5.20;99.90;;;;;;5014285;28;20498;-67
2022/03/25 02:53:37;;;;;;;65.28;46.05;;;5.20;99.90;;;;;;5014176;28;20042;-67
2022/03/25 02:56:02;;;;;;;62.00;46.10;;;5.30;99.90;;;;;;5010245;28;20042;-69
2022/03/25 02:58:28;;;;;;;58.60;45.00;;;5.30;99.90;;;;;;5013578;28;20087;-68
2022/03/25 03:00:54;;;;;;;58.72;45.05;;;5.20;99.90;;;;;;5014055;28;20042;-68
2022/03/25 03:03:19;;;;;;;58.67;43.80;;;5.20;99.90;;;;;;4996387;28;20049;-68
2022/03/25 03:05:45;;;;;;;62.13;43.85;;;5.10;99.90;;;;;;5013693;28;20041;-68
2022/03/25 03:08:11;;;;;;;58.60;43.97;;;5.00;99.90;;;;;;4996428;28;20399;-68
2022/03/25 03:10:36;;;;;;;57.40;43.53;;;4.90;99.90;;;;;;5014188;28;20390;-68
2022/03/25 03:13:02;;;;;;;58.00;43.97;;;4.90;99.90;;;;;;5006020;28;20485;-67
2022/03/25 03:15:29;;;;;;;57.83;44.70;;;4.90;99.90;;;;;;4989135;28;20039;-68
2022/03/25 03:17:54;;;;;;;59.75;45.72;;;4.90;99.90;;;;;;4977830;28;20050;-68
2022/03/25 03:20:21;;;;;;;56.75;43.00;;;4.90;99.90;;;;;;4961132;28;20423;-68
2022/03/25 03:22:48;;;;;;;61.03;44.13;;;4.90;99.90;;;;;;4978423;28;20066;-68
2022/03/25 03:25:14;;;;;;;60.70;44.47;;;4.90;99.90;;;;;;4984736;28;20089;-68
2022/03/25 03:27:40;;;;;;;59.35;44.92;;;4.90;99.90;;;;;;4997629;28;20065;-66
2022/03/25 03:30:08;;;;;;;62.03;44.38;;;4.90;99.90;;;;;;4998216;28;20046;-68
2022/03/25 03:32:34;;;;;;;63.10;45.97;;;4.90;99.90;;;;;;4997735;28;20104;-68
2022/03/25 03:35:00;;;;;;;63.03;45.47;;;4.80;99.90;;;;;;4992983;28;20042;-68
2022/03/25 03:37:26;;;;;;;58.42;43.95;;;4.80;99.90;;;;;;4977998;28;20050;-68
2022/03/25 03:39:52;;;;;;;62.75;43.92;;;4.70;99.90;;;;;;4977926;28;20043;-68
2022/03/25 03:42:17;;;;;;;62.67;45.25;;;4.80;99.90;;;;;;4961377;28;20440;-68
2022/03/25 03:44:43;;;;;;;63.78;45.15;;;4.80;99.90;;;;;;4980218;28;20170;-68
2022/03/25 03:47:10;;;;;;;60.85;44.03;;;4.80;99.90;;;;;;4997494;28;20049;-68
2022/03/25 03:49:37;;;;;;;66.97;45.90;;;4.80;99.90;;;;;;4997395;28;20056;-68
2022/03/25 03:52:04;;;;;;;59.85;44.63;;;4.80;99.90;;;;;;4997078;28;20412;-67
2022/03/25 03:54:30;;;;;;;63.33;45.13;;;4.80;99.90;;;;;;4996683;28;20046;-68
2022/03/25 03:56:56;;;;;;;61.90;44.67;;;4.70;99.90;;;;;;4977946;28;20078;-69
2022/03/25 03:59:21;;;;;;;62.45;46.05;;;4.70;99.90;;;;;;4977691;28;20117;-67
2022/03/25 04:01:48;;;;;;;67.50;46.45;;;4.60;99.90;;;;;;4977723;28;20452;-67
2022/03/25 04:04:14;;;;;;;64.93;45.75;;;4.60;99.90;;;;;;4977678;28;20143;-68
2022/03/25 04:06:39;;;;;;;62.63;44.92;;;4.60;99.90;;;;;;4995322;28;20046;-68
2022/03/25 04:09:05;;;;;;;60.40;43.33;;;4.60;99.90;;;;;;4979819;28;20124;-68
2022/03/25 04:11:30;;;;;;;62.20;44.72;;;4.60;99.90;;;;;;4996986;28;20452;-67
2022/03/25 04:13:56;;;;;;;64.70;46.15;;;4.60;99.90;;;;;;4996566;28;20065;-67
2022/03/25 04:16:22;;;;;;;60.65;43.35;;;4.60;99.90;;;;;;4980825;28;20042;-67
2022/03/25 04:18:48;;;;;;;64.88;45.88;;;4.50;99.90;;;;;;4977101;28;20057;-67
2022/03/25 04:21:14;;;;;;;61.33;43.55;;;4.40;99.90;;;;;;4977304;28;20448;-68
2022/03/25 04:23:40;;;;;;;58.10;42.88;;;4.40;99.90;;;;;;4976845;28;20047;-67
2022/03/25 04:26:05;;;;;;;58.53;43.25;;;4.40;99.90;;;;;;4990088;28;20038;-68
2022/03/25 04:28:31;;;;;;;56.55;41.78;;;4.40;99.90;;;;;;4996382;28;20065;-68
2022/03/25 04:30:57;;;;;;;57.10;42.67;;;4.30;99.90;;;;;;4996665;28;20038;-67
2022/03/25 04:33:22;;;;;;;57.13;42.47;;;4.30;99.90;;;;;;4996673;28;20439;-68
2022/03/25 04:35:48;;;;;;;58.40;43.80;;;4.30;99.90;;;;;;4985549;28;20136;-68
2022/03/25 04:38:16;;;;;;;54.25;40.85;;;4.30;99.90;;;;;;4976756;28;20197;-68
2022/03/25 04:40:42;;;;;;;54.15;40.83;;;4.20;99.90;;;;;;4977255;28;20039;-68
2022/03/25 04:43:09;;;;;;;50.35;38.67;;;4.10;99.90;;;;;;4977005;28;20069;-68
2022/03/25 04:45:35;;;;;;;55.03;41.13;;;4.00;99.90;;;;;;4985297;28;20052;-68
2022/03/25 04:48:02;;;;;;;49.92;38.88;;;4.00;99.90;;;;;;4978774;28;20046;-68
2022/03/25 04:50:27;;;;;;;51.65;38.92;;;4.00;99.90;;;;;;4996422;28;20101;-67
2022/03/25 04:52:54;;;;;;;51.08;38.55;;;4.00;99.90;;;;;;4995837;28;20042;-68
2022/03/25 04:55:20;;;;;;;46.75;37.25;;;4.10;99.90;;;;;;4989094;28;20126;-69
2022/03/25 04:57:47;;;;;;;48.15;37.92;;;4.10;99.90;;;;;;4976127;28;20042;-68
2022/03/25 05:00:14;;;;;;;45.25;37.33;;;4.10;99.90;;;;;;4976524;28;20364;-69
2022/03/25 05:02:40;;;;;;;49.05;37.20;;;3.90;99.90;;;;;;4976255;28;20043;-68
2022/03/25 05:05:06;;;;;;;52.58;38.30;;;3.90;99.90;;;;;;4981024;28;20088;-69
2022/03/25 05:07:33;;;;;;;49.83;38.38;;;3.90;99.90;;;;;;4995152;28;20448;-68
2022/03/25 05:10:00;;;;;;;52.80;39.00;;;3.90;99.90;;;;;;4995750;28;20057;-69
2022/03/25 05:12:30;;;;;;;50.92;39.08;;;3.80;99.90;;;;;;4999200;28;20057;-66
2022/03/25 05:14:55;;;;;;;56.13;39.78;;;3.80;99.90;;;;;;5015196;28;20064;-68
2022/03/25 05:17:21;;;;;;;50.05;38.72;;;3.70;99.90;;;;;;5015262;28;20045;-68
2022/03/25 05:19:47;;;;;;;53.08;40.15;;;3.70;99.90;;;;;;5015142;28;20042;-68
2022/03/25 05:22:14;;;;;;;52.72;39.78;;;3.70;99.90;;;;;;5015668;28;20053;-70
2022/03/25 05:24:40;;;;;;;54.92;40.30;;;3.70;99.90;;;;;;5015034;28;20045;-71
2022/03/25 05:27:06;;;;;;;52.78;41.00;;;3.80;99.90;;;;;;5015220;28;20052;-68
2022/03/25 05:29:32;;;;;;;53.75;38.75;;;3.80;99.90;;;;;;4997368;28;20138;-68
2022/03/25 05:31:58;;;;;;;49.45;38.35;;;3.70;99.90;;;;;;5015011;28;20158;-67
2022/03/25 05:34:23;;;;;;;49.83;37.60;;;3.60;99.90;;;;;;5014723;28;20042;-68
2022/03/25 05:36:49;;;;;;;48.13;37.00;;;3.50;99.90;;;;;;5013637;28;20089;-69
2022/03/25 05:39:15;;;;;;;50.40;38.00;;;3.50;99.90;;;;;;4997611;28;20061;-68
2022/03/25 05:41:43;;;;;;;50.05;37.03;;;3.40;99.90;;;;;;5015056;28;20042;-69
2022/03/25 05:44:09;;;;;;;47.55;36.38;;;3.40;99.90;;;;;;5015151;28;20048;-68
2022/03/25 05:46:35;;;;;;;48.15;35.72;;;3.50;99.90;;;;;;5014668;28;20382;-68
2022/03/25 05:49:01;;;;;;;52.88;39.33;;;3.40;99.90;;;;;;5014741;28;20113;-68
2022/03/25 05:51:27;;;;;;;51.15;37.72;;;3.50;99.90;;;;;;5015091;28;20038;-68
2022/03/25 05:53:52;;;;;;;50.08;38.47;;;3.50;99.90;;;;;;5014956;28;20077;-68
2022/03/25 05:56:19;;;;;;;53.08;39.75;;;3.70;99.90;;;;;;5005088;28;20046;-68
2022/03/25 05:58:45;;;;;;;53.45;40.92;;;3.80;99.90;;;;;;4996051;28;20055;-67
2022/03/25 06:01:11;;;;;;;51.17;38.42;;;4.00;99.90;;;;;;4995231;28;20142;-67
2022/03/25 06:03:36;;;;;;;48.33;38.67;;;4.30;99.90;;;;;;4993360;28;20038;-67
2022/03/25 06:06:04;;;;;;;51.30;39.10;;;4.60;99.90;;;;;;4998326;28;20076;-67
2022/03/25 06:08:30;;;;;;;50.42;38.20;;;4.70;99.90;;;;;;4993738;28;20049;-69
2022/03/25 06:10:57;;;;;;;49.50;37.15;;;4.80;99.90;;;;;;4993724;28;20038;-68
2022/03/25 06:13:23;;;;;;;46.95;36.13;;;5.00;99.90;;;;;;4993579;28;20058;-68
2022/03/25 06:15:49;;;;;;;48.03;35.13;;;5.40;99.90;;;;;;5004393;28;20041;-68
2022/03/25 06:18:14;;;;;;;44.72;34.83;;;5.50;99.90;;;;;;5013469;28;20356;-69
2022/03/25 06:20:40;;;;;;;45.33;34.10;;;5.60;99.90;;;;;;5006169;28;20069;-68
2022/03/25 06:23:06;;;;;;;44.08;33.13;;;5.60;99.90;;;;;;4993653;28;20353;-69
2022/03/25 06:25:31;;;;;;;40.50;32.88;;;5.80;99.90;;;;;;4994016;28;20482;-69
2022/03/25 06:28:02;;;;;;;40.97;30.75;;;6.00;99.90;;;;;;5001860;28;20038;-70
2022/03/25 06:30:37;;;;;;;43.78;33.03;;;6.20;99.90;;;;;;5014223;28;20045;-71
2022/03/25 06:33:10;;;;;;;40.50;31.08;;;6.30;99.90;;;;;;5013956;28;20121;-72
2022/03/25 06:35:37;;;;;;;38.58;29.60;;;6.40;99.90;;;;;;5013998;28;20042;-71
2022/03/25 06:38:04;;;;;;;40.95;31.33;;;6.60;99.90;;;;;;4996367;28;20045;-72
2022/03/25 06:40:30;;;;;;;39.00;29.65;;;6.80;99.90;;;;;;4996888;28;20052;-69
2022/03/25 06:42:57;;;;;;;40.15;29.67;;;6.90;99.90;;;;;;4998400;28;20042;-67
2022/03/25 06:45:23;;;;;;;38.60;28.50;;;7.10;99.90;;;;;;4990331;28;20039;-67
2022/03/25 06:47:49;;;;;;;39.55;29.42;;;7.20;99.90;;;;;;5008149;28;20061;-66
2022/03/25 06:50:17;;;;;;;37.20;28.27;;;7.20;99.90;;;;;;5017376;28;20458;-67
2022/03/25 06:52:43;;;;;;;36.75;28.55;;;7.30;99.90;;;;;;5017452;28;20108;-70
2022/03/25 06:55:10;;;;;;;42.15;30.73;;;7.40;99.90;;;;;;5016678;28;20046;-66
2022/03/25 06:57:36;;;;;;;39.63;29.63;;;7.40;99.90;;;;;;5000388;28;20462;-65
2022/03/25 07:00:03;;;;;;;39.28;29.27;;;7.30;99.90;;;;;;5017608;28;20040;-67
2022/03/25 07:02:30;;;;;;;38.42;29.23;;;7.30;99.90;;;;;;4999437;28;20137;-66
2022/03/25 07:04:56;;;;;;;39.00;28.60;;;7.10;99.90;;;;;;4997904;28;20061;-67
2022/03/25 07:07:25;;;;;;;42.38;30.70;;;6.80;99.90;;;;;;4999535;28;20042;-72
2022/03/25 07:09:53;;;;;;;41.83;32.00;;;6.70;99.90;;;;;;4996330;28;20046;-72
2022/03/25 07:12:19;;;;;;;44.53;31.95;;;6.60;99.90;;;;;;4979032;28;20396;-68
2022/03/25 07:14:45;;;;;;;41.70;30.98;;;6.50;99.90;;;;;;5000131;28;20045;-71
2022/03/25 07:17:11;;;;;;;45.22;33.40;;;6.60;99.90;;;;;;4995685;28;20050;-68
2022/03/25 07:19:37;;;;;;;46.63;32.58;;;6.70;99.90;;;;;;5001201;28;20030;-68
2022/03/25 07:22:04;;;;;;;49.42;34.78;;;6.80;99.90;;;;;;5014697;28;20049;-71
2022/03/25 07:24:30;;;;;;;43.67;33.38;;;6.90;99.90;;;;;;4995432;28;20085;-69
2022/03/25 07:26:56;;;;;;;47.67;34.00;;;6.90;99.90;;;;;;4997815;28;20034;-72
2022/03/25 07:29:21;;;;;;;47.05;33.85;;;7.00;99.90;;;;;;4979683;28;20421;-68
2022/03/25 07:31:47;;;;;;;47.70;33.10;;;7.20;99.90;;;;;;5002982;28;20096;-68
2022/03/25 07:34:13;;;;;;;49.15;34.35;;;7.40;99.90;;;;;;5016674;28;20045;-68
2022/03/25 07:36:39;;;;;;;48.88;35.08;;;7.50;99.90;;;;;;5016344;28;20052;-68
2022/03/25 07:39:05;;;;;;;47.97;34.30;;;7.50;99.90;;;;;;5017392;28;20446;-69
2022/03/25 07:41:31;;;;;;;48.45;33.13;;;7.60;99.90;;;;;;4999786;28;20421;-68
2022/03/25 07:43:56;;;;;;;51.58;35.10;;;7.80;99.90;;;;;;5016714;28;20029;-67
2022/03/25 07:46:27;;;;;;;48.55;33.45;;;7.90;99.90;;;;;;5016573;28;20495;-68
2022/03/25 07:48:53;;;;;;;51.28;32.95;;;8.30;99.90;;;;;;5016691;28;20042;-71
2022/03/25 07:51:19;;;;;;;47.67;32.33;;;8.40;99.90;;;;;;5017111;28;20398;-70
2022/03/25 07:53:45;;;;;;;47.88;32.70;;;8.40;99.90;;;;;;5016348;28;20046;-69
2022/03/25 07:56:11;;;;;;;42.53;29.38;;;8.40;99.90;;;;;;5016334;28;20049;-70
2022/03/25 07:58:37;;;;;;;45.10;31.10;;;8.70;99.90;;;;;;5016335;28;20056;-68
2022/03/25 08:01:04;;;;;;;55.05;31.42;;;8.80;99.90;;;;;;5016230;28;20048;-69
2022/03/25 08:03:29;;;;;;;48.65;31.15;;;8.80;99.90;;;;;;4998639;28;20143;-68
2022/03/25 08:05:55;;;;;;;47.88;30.92;;;8.80;99.90;;;;;;4998373;28;20109;-69
2022/03/25 08:08:22;;;;;;;47.63;31.52;;;8.90;99.90;;;;;;4999207;28;20125;-68
2022/03/25 08:10:49;;;;;;;45.85;30.67;;;9.20;99.90;;;;;;4999464;28;20060;-67
2022/03/25 08:13:16;;;;;;;46.15;30.42;;;9.30;99.90;;;;;;5016100;28;20104;-69
2022/03/25 08:15:42;;;;;;;46.83;29.35;;;9.30;99.90;;;;;;5015357;28;20468;-68
2022/03/25 08:18:13;;;;;;;48.28;31.00;;;9.50;99.90;;;;;;4999035;28;20041;-70
2022/03/25 08:20:41;;;;;;;46.97;31.02;;;9.60;99.90;;;;;;5016309;28;20037;-69
2022/03/25 08:23:11;;;;;;;44.53;29.05;;;9.70;99.90;;;;;;5016505;28;20029;-69
2022/03/25 08:28:22;;;;;;;44.10;29.25;;;10.00;99.90;;;;;;5015985;28;20459;-68
2022/03/25 08:30:48;;;;;;;43.53;29.13;;;10.10;99.90;;;;;;5015893;28;20045;-69
2022/03/25 08:33:14;;;;;;;44.85;29.80;;;10.10;99.90;;;;;;4982286;28;20319;-69
2022/03/25 08:35:42;;;;;;;43.10;28.88;;;10.00;99.90;;;;;;5015354;28;20076;-69
2022/03/25 08:38:08;;;;;;;45.65;29.92;;;10.20;99.90;;;;;;4998829;28;20412;-69
2022/03/25 08:40:35;;;;;;;43.70;28.67;;;10.40;99.90;;;;;;5016044;28;20366;-69
2022/03/25 08:43:02;;;;;;;46.15;29.63;;;10.50;99.90;;;;;;5016127;28;20030;-69
2022/03/25 08:45:28;;;;;;;41.58;29.83;;;10.60;99.90;;;;;;5015029;28;20092;-69
2022/03/25 08:47:54;;;;;;;41.88;27.35;;;10.60;99.90;;;;;;5015438;28;20486;-69
2022/03/25 08:50:22;;;;;;;42.22;26.80;;;10.80;99.90;;;;;;4998269;28;20092;-69
2022/03/25 08:52:48;;;;;;;43.30;28.15;;;11.00;99.90;;;;;;5015690;28;20116;-67
2022/03/25 08:55:16;;;;;;;41.83;27.52;;;11.00;99.90;;;;;;5015090;28;20033;-68
2022/03/25 08:57:42;;;;;;;39.65;25.35;;;11.10;99.90;;;;;;5015313;28;20379;-69
2022/03/25 09:00:12;;;;;;;40.03;24.73;;;11.20;99.90;;;;;;4998208;28;20048;-68
2022/03/25 09:02:40;;;;;;;40.88;26.67;;;11.30;99.90;;;;;;5015153;28;20048;-68
2022/03/25 09:05:08;;;;;;;41.80;27.00;;;11.40;99.90;;;;;;5014942;28;20088;-69
2022/03/25 09:07:34;;;;;;;38.05;24.67;;;11.40;99.90;;;;;;5015465;28;20125;-68
2022/03/25 09:09:59;;;;;;;42.45;27.25;;;11.60;99.90;;;;;;4997920;28;20141;-69
2022/03/25 09:12:25;;;;;;;39.58;25.60;;;11.70;99.90;;;;;;5015114;28;20810;-67
2022/03/25 09:14:51;;;;;;;38.70;24.52;;;11.80;99.90;;;;;;5014287;28;20038;-66
2022/03/25 09:17:17;;;;;;;39.78;24.83;;;11.80;99.90;;;;;;5015180;28;20057;-67
2022/03/25 09:19:43;;;;;;;38.85;24.77;;;11.90;99.90;;;;;;5015192;28;20117;-67
2022/03/25 09:22:09;;;;;;;39.95;24.77;;;12.00;99.90;;;;;;5015249;28;20100;-67
2022/03/25 09:24:35;;;;;;;39.67;25.85;;;12.20;99.90;;;;;;5014745;28;20041;-67
2022/03/25 09:27:01;;;;;;;40.20;26.10;;;12.30;99.90;;;;;;5014981;28;20049;-71
2022/03/25 09:29:26;;;;;;;41.80;25.48;;;12.40;99.90;;;;;;5014855;28;20088;-69
2022/03/25 09:31:52;;;;;;;42.28;22.00;;;12.50;99.90;;;;;;5015058;28;20038;-67
2022/03/25 09:37:02;;;;;;;37.05;23.33;;;12.80;99.90;;;;;;5014501;28;20132;-67
2022/03/25 09:39:28;;;;;;;36.00;22.63;;;12.80;99.90;;;;;;5014967;28;20045;-68
2022/03/25 09:41:54;;;;;;;38.22;22.70;;;13.00;99.90;;;;;;4997408;28;20424;-67
2022/03/25 09:44:21;;;;;;;35.05;23.27;;;13.00;99.90;;;;;;5014049;28;20030;-69
2022/03/25 09:46:49;;;;;;;32.95;21.45;;;13.10;99.90;;;;;;5014326;28;20052;-68
2022/03/25 09:49:15;;;;;;;35.80;21.98;;;13.10;99.90;;;;;;5014687;28;20463;-68
2022/03/25 09:51:41;;;;;;;36.55;21.63;;;13.20;99.90;;;;;;5014786;28;20046;-69
2022/03/25 09:54:09;;;;;;;33.90;22.58;;;13.20;99.90;;;;;;4996878;28;20037;-69
2022/03/25 09:56:35;;;;;;;37.03;24.08;;;13.20;99.90;;;;;;5014555;28;20038;-70
2022/03/25 09:59:02;;;;;;;37.63;23.17;;;13.10;99.90;;;;;;5015025;28;20124;-70
2022/03/25 10:01:28;;;;;;;35.80;22.42;;;13.10;99.90;;;;;;5014347;28;20414;-69
2022/03/25 10:03:54;;;;;;;36.42;22.40;;;13.30;99.90;;;;;;5014333;28;20042;-69
2022/03/25 10:06:19;;;;;;;39.25;24.00;;;13.40;99.90;;;;;;5014597;28;20042;-68
2022/03/25 10:08:58;;;;;;;38.67;23.23;;;13.40;99.90;;;;;;5014362;28;20030;-69
2022/03/25 10:11:26;;;;;;;37.83;23.73;;;13.60;99.70;;;;;;5014335;28;20104;-68
2022/03/25 10:14:15;;;;;;;38.47;24.63;;;13.70;99.90;;;;;;5013643;28;20046;-69
2022/03/25 10:16:45;;;;;;;38.72;24.80;;;13.70;99.90;;;;;;5013866;28;20049;-69
2022/03/25 10:19:21;;;;;;;38.10;24.63;;;13.80;99.90;;;;;;4996995;28;20486;-68
2022/03/25 10:22:01;;;;;;;36.63;24.05;;;13.90;99.90;;;;;;5014149;28;20042;-68
2022/03/25 10:24:40;;;;;;;43.42;24.00;;;14.00;99.60;;;;;;5013742;28;20051;-68
2022/03/25 10:27:07;;;;;;;38.80;25.05;;;14.10;99.50;;;;;;5014015;28;20042;-70
2022/03/25 10:29:35;;;;;;;35.63;23.95;;;14.20;99.00;;;;;;5014530;28;20121;-68
2022/03/25 10:32:08;;;;;;;38.05;24.02;;;14.20;99.40;;;;;;5014405;28;20045;-71
2022/03/25 10:34:39;;;;;;;37.40;22.92;;;14.40;98.80;;;;;;5013759;28;20459;-68
2022/03/25 10:37:07;;;;;;;36.67;23.42;;;14.20;98.80;;;;;;5013992;28;20068;-68
2022/03/25 10:39:33;;;;;;;33.42;22.55;;;14.30;98.50;;;;;;4989979;28;20042;-68
2022/03/25 10:42:04;;;;;;;39.17;23.25;;;14.40;99.00;;;;;;4994430;28;20073;-68
2022/03/25 10:44:41;;;;;;;34.88;22.67;;;14.40;98.50;;;;;;4976908;28;20042;-67
2022/03/25 10:47:19;;;;;;;35.20;22.35;;;14.60;98.00;;;;;;4995566;28;20049;-67
2022/03/25 10:49:46;;;;;;;38.75;23.35;;;14.70;97.80;;;;;;5014136;28;20046;-67
2022/03/25 10:52:21;;;;;;;37.30;23.52;;;14.70;98.30;;;;;;5013734;28;20380;-71
2022/03/25 10:54:47;;;;;;;37.92;22.98;;;14.80;98.20;;;;;;4989537;28;20745;-68
2022/03/25 10:57:15;;;;;;;37.60;24.45;;;14.80;97.90;;;;;;4995500;28;20030;-69
2022/03/25 10:59:41;;;;;;;35.65;23.40;;;14.90;97.80;;;;;;4994537;28;20038;-69
2022/03/25 11:02:08;;;;;;;34.65;22.02;;;15.00;98.00;;;;;;4994216;28;20073;-69
2022/03/25 11:04:35;;;;;;;34.75;22.05;;;15.20;97.30;;;;;;4977170;28;20363;-68
2022/03/25 11:07:01;;;;;;;35.17;23.63;;;15.30;96.80;;;;;;4994012;28;20141;-69
2022/03/25 11:09:28;;;;;;;35.63;22.88;;;15.40;97.30;;;;;;5014163;28;20041;-70
2022/03/25 11:11:55;;;;;;;33.70;21.52;;;15.50;97.50;;;;;;5014110;28;20046;-68
2022/03/25 11:14:21;;;;;;;38.13;23.15;;;15.70;96.70;;;;;;5013086;28;20057;-70
2022/03/25 11:16:52;;;;;;;38.05;23.48;;;15.80;96.20;;;;;;5013148;28;20046;-70
2022/03/25 11:19:19;;;;;;;36.33;21.98;;;15.90;96.10;;;;;;5013927;28;20074;-68
2022/03/25 11:21:46;;;;;;;37.88;23.17;;;16.00;95.50;;;;;;5013639;28;20049;-69
2022/03/25 11:24:40;;;;;;;34.67;22.13;;;15.90;95.80;;;;;;5013576;28;20060;-68
2022/03/25 11:27:14;;;;;;;37.25;21.00;;;15.80;96.50;;;;;;5011947;28;20054;-68
2022/03/25 11:29:44;;;;;;;34.42;22.13;;;15.60;95.90;;;;;;5013643;28;20390;-68
2022/03/25 11:32:12;;;;;;;34.38;22.05;;;15.90;95.20;;;;;;5013578;28;20045;-68
2022/03/25 11:34:55;;;;;;;36.05;22.83;;;16.00;95.30;;;;;;5014548;28;20136;-71
2022/03/25 11:37:37;;;;;;;35.15;23.65;;;16.10;95.40;;;;;;4999325;28;20046;-70
2022/03/25 11:40:16;;;;;;;35.08;23.20;;;16.10;95.90;;;;;;5015396;28;20112;-69
2022/03/25 11:42:43;;;;;;;36.45;22.42;;;16.00;95.40;;;;;;5016993;28;20042;-70
2022/03/25 11:45:56;;;;;;;32.00;21.00;;;16.10;95.40;;;;;;5016200;28;20046;-67
2022/03/25 11:48:24;;;;;;;37.58;22.58;;;16.30;95.50;;;;;;4989157;28;20057;-70
2022/03/25 11:50:51;;;;;;;31.08;21.48;;;16.20;95.50;;;;;;5017684;28;20131;-69
2022/03/25 11:53:18;;;;;;;36.30;22.60;;;16.50;94.90;;;;;;4999079;28;20100;-69
2022/03/25 11:56:06;;;;;;;33.22;22.02;;;16.50;95.00;;;;;;4998987;28;20049;-69
2022/03/25 11:58:36;;;;;;;34.75;21.40;;;16.60;94.80;;;;;;5016743;28;20073;-69
2022/03/25 12:01:20;;;;;;;31.42;21.50;;;16.80;94.20;;;;;;5016447;28;20061;-70
2022/03/25 12:03:52;;;;;;;34.63;22.88;;;16.80;94.00;;;;;;5016476;28;20034;-70
2022/03/25 12:06:18;;;;;;;31.95;22.33;;;16.50;94.60;;;;;;4999109;28;20367;-69
2022/03/25 12:09:15;;;;;;;35.05;22.17;;;16.60;94.90;;;;;;4999293;28;20041;-69
2022/03/25 12:11:52;;;;;;;34.15;21.80;;;16.60;94.90;;;;;;4999355;28;20501;-70
2022/03/25 12:14:20;;;;;;;31.58;20.77;;;16.80;94.00;;;;;;5016031;28;20099;-70
2022/03/25 12:16:49;;;;;;;35.28;22.95;;;16.90;93.90;;;;;;5015780;28;20046;-69
2022/03/25 12:19:39;;;;;;;34.17;22.13;;;16.80;93.90;;;;;;5018248;28;20374;-69
2022/03/25 12:22:20;;;;;;;36.28;21.58;;;16.90;93.90;;;;;;5016209;28;20042;-69
2022/03/25 12:24:53;;;;;;;35.03;21.38;;;17.00;93.60;;;;;;5015815;28;20042;-69
2022/03/25 12:27:20;;;;;;;35.35;21.65;;;16.80;94.00;;;;;;5016183;28;20069;-71
2022/03/25 12:29:56;;;;;;;29.17;19.95;;;17.00;93.70;;;;;;5015897;28;20474;-70
2022/03/25 12:32:25;;;;;;;28.35;19.10;;;17.00;93.90;;;;;;4998421;28;20056;-70
2022/03/25 12:35:16;;;;;;;31.85;21.17;;;17.20;93.10;;;;;;4992144;28;20054;-68
2022/03/25 12:38:01;;;;;;;30.88;19.52;;;17.10;93.30;;;;;;4996385;28;20436;-71
2022/03/25 12:40:30;;;;;;;30.15;19.63;;;17.20;92.60;;;;;;5003732;28;20048;-69
2022/03/25 12:43:01;;;;;;;31.73;20.40;;;17.40;92.20;;;;;;5015577;28;20465;-69